sensor_id;sensor_type;location;lat;lon;timestamp;P1;durP1;ratioP1;P2;durP2;ratioP2
34459;SDS011;20704;51.260;22.558;2023-07-13T00:01:53;9.15;;;3.00;;
34459;SDS011;20704;51.260;22.558;2023-07-13T00:03:56;5.63;;;3.00;;
34459;SDS011;20704;51.260;22.558;2023-07-13T00:05:59;3.85;;;2.78;;
34459;SDS011;20704;51.260;22.558;2023-07-13T00:08:02;3.88;;;3.10;;
34459;SDS011;20704;51.260;22.558;2023-07-13T00:10:05;6.65;;;2.80;;
34459;SDS011;20704;51.260;22.558;2023-07-13T00:12:25;6.75;;;2.80;;
34459;SDS011;20704;51.260;22.558;2023-07-13T00:14:30;7.72;;;3.17;;
34459;SDS011;20704;51.260;22.558;2023-07-13T00:16:33;6.68;;;3.03;;
34459;SDS011;20704;51.260;22.558;2023-07-13T00:18:37;6.65;;;2.95;;
34459;SDS011;20704;51.260;22.558;2023-07-13T00:20:39;6.80;;;3.08;;
34459;SDS011;20704;51.260;22.558;2023-07-13T00:22:43;6.13;;;3.13;;
34459;SDS011;20704;51.260;22.558;2023-07-13T00:24:45;6.57;;;3.20;;
34459;SDS011;20704;51.260;22.558;2023-07-13T00:26:48;8.93;;;3.17;;
34459;SDS011;20704;51.260;22.558;2023-07-13T00:28:50;4.35;;;3.13;;
34459;SDS011;20704;51.260;22.558;2023-07-13T00:30:53;4.50;;;3.10;;
34459;SDS011;20704;51.260;22.558;2023-07-13T00:32:55;3.75;;;3.20;;
34459;SDS011;20704;51.260;22.558;2023-07-13T00:35:17;4.93;;;3.30;;
34459;SDS011;20704;51.260;22.558;2023-07-13T00:37:19;6.75;;;4.05;;
34459;SDS011;20704;51.260;22.558;2023-07-13T00:39:21;8.38;;;2.70;;
34459;SDS011;20704;51.260;22.558;2023-07-13T00:41:24;5.15;;;3.25;;
34459;SDS011;20704;51.260;22.558;2023-07-13T00:43:27;7.47;;;3.28;;
34459;SDS011;20704;51.260;22.558;2023-07-13T00:47:33;3.70;;;2.97;;
34459;SDS011;20704;51.260;22.558;2023-07-13T00:49:35;8.25;;;3.03;;
34459;SDS011;20704;51.260;22.558;2023-07-13T00:51:39;3.58;;;2.83;;
34459;SDS011;20704;51.260;22.558;2023-07-13T00:53:45;8.40;;;3.28;;
34459;SDS011;20704;51.260;22.558;2023-07-13T00:55:48;7.68;;;3.53;;
34459;SDS011;20704;51.260;22.558;2023-07-13T00:57:52;5.03;;;3.20;;
34459;SDS011;20704;51.260;22.558;2023-07-13T00:59:59;9.50;;;3.60;;
34459;SDS011;20704;51.260;22.558;2023-07-13T01:02:06;11.55;;;3.70;;
34459;SDS011;20704;51.260;22.558;2023-07-13T01:04:09;6.80;;;3.22;;
34459;SDS011;20704;51.260;22.558;2023-07-13T01:06:12;6.05;;;2.85;;
34459;SDS011;20704;51.260;22.558;2023-07-13T01:08:15;7.75;;;3.28;;
34459;SDS011;20704;51.260;22.558;2023-07-13T01:10:20;8.18;;;3.08;;
34459;SDS011;20704;51.260;22.558;2023-07-13T01:12:24;9.70;;;4.63;;
34459;SDS011;20704;51.260;22.558;2023-07-13T01:14:26;9.40;;;3.20;;
34459;SDS011;20704;51.260;22.558;2023-07-13T01:16:29;4.82;;;3.03;;
34459;SDS011;20704;51.260;22.558;2023-07-13T01:18:33;9.52;;;3.22;;
34459;SDS011;20704;51.260;22.558;2023-07-13T01:20:36;10.25;;;3.47;;
34459;SDS011;20704;51.260;22.558;2023-07-13T01:22:38;8.00;;;3.47;;
34459;SDS011;20704;51.260;22.558;2023-07-13T01:24:42;4.18;;;2.90;;
34459;SDS011;20704;51.260;22.558;2023-07-13T01:26:46;9.30;;;3.95;;
34459;SDS011;20704;51.260;22.558;2023-07-13T01:28:49;4.55;;;3.75;;
34459;SDS011;20704;51.260;22.558;2023-07-13T01:30:51;6.40;;;4.05;;
34459;SDS011;20704;51.260;22.558;2023-07-13T01:32:53;4.85;;;3.70;;
34459;SDS011;20704;51.260;22.558;2023-07-13T01:34:55;8.15;;;3.35;;
34459;SDS011;20704;51.260;22.558;2023-07-13T01:36:58;4.00;;;3.25;;
34459;SDS011;20704;51.260;22.558;2023-07-13T01:39:00;13.18;;;3.00;;
34459;SDS011;20704;51.260;22.558;2023-07-13T01:41:03;6.60;;;3.15;;
34459;SDS011;20704;51.260;22.558;2023-07-13T01:43:06;4.15;;;2.95;;
34459;SDS011;20704;51.260;22.558;2023-07-13T01:45:08;5.32;;;3.13;;
34459;SDS011;20704;51.260;22.558;2023-07-13T01:47:11;5.88;;;3.75;;
34459;SDS011;20704;51.260;22.558;2023-07-13T01:49:14;6.90;;;3.00;;
34459;SDS011;20704;51.260;22.558;2023-07-13T01:51:16;6.95;;;3.55;;
34459;SDS011;20704;51.260;22.558;2023-07-13T01:53:19;7.47;;;3.25;;
34459;SDS011;20704;51.260;22.558;2023-07-13T01:55:22;4.32;;;3.05;;
34459;SDS011;20704;51.260;22.558;2023-07-13T01:57:24;6.80;;;3.30;;
34459;SDS011;20704;51.260;22.558;2023-07-13T01:59:27;3.90;;;3.35;;
34459;SDS011;20704;51.260;22.558;2023-07-13T02:01:29;6.38;;;3.50;;
34459;SDS011;20704;51.260;22.558;2023-07-13T02:03:32;4.57;;;2.92;;
34459;SDS011;20704;51.260;22.558;2023-07-13T02:05:34;6.07;;;3.25;;
34459;SDS011;20704;51.260;22.558;2023-07-13T02:07:38;10.52;;;3.67;;
34459;SDS011;20704;51.260;22.558;2023-07-13T02:09:41;5.22;;;3.78;;
34459;SDS011;20704;51.260;22.558;2023-07-13T02:11:44;4.68;;;3.80;;
34459;SDS011;20704;51.260;22.558;2023-07-13T02:13:46;6.10;;;3.45;;
34459;SDS011;20704;51.260;22.558;2023-07-13T02:15:51;5.63;;;3.42;;
34459;SDS011;20704;51.260;22.558;2023-07-13T02:17:54;7.03;;;4.32;;
34459;SDS011;20704;51.260;22.558;2023-07-13T02:19:56;5.57;;;3.58;;
34459;SDS011;20704;51.260;22.558;2023-07-13T02:21:58;8.80;;;4.15;;
34459;SDS011;20704;51.260;22.558;2023-07-13T02:24:01;5.80;;;3.55;;
34459;SDS011;20704;51.260;22.558;2023-07-13T02:26:03;8.43;;;3.95;;
34459;SDS011;20704;51.260;22.558;2023-07-13T02:28:06;6.45;;;3.55;;
34459;SDS011;20704;51.260;22.558;2023-07-13T02:30:09;7.30;;;3.45;;
34459;SDS011;20704;51.260;22.558;2023-07-13T02:32:12;5.95;;;3.72;;
34459;SDS011;20704;51.260;22.558;2023-07-13T02:34:15;4.30;;;3.13;;
34459;SDS011;20704;51.260;22.558;2023-07-13T02:36:18;6.32;;;4.43;;
34459;SDS011;20704;51.260;22.558;2023-07-13T02:38:21;6.25;;;3.92;;
34459;SDS011;20704;51.260;22.558;2023-07-13T02:40:24;10.85;;;4.50;;
34459;SDS011;20704;51.260;22.558;2023-07-13T02:42:26;6.18;;;4.07;;
34459;SDS011;20704;51.260;22.558;2023-07-13T02:44:28;5.97;;;4.30;;
34459;SDS011;20704;51.260;22.558;2023-07-13T02:46:31;7.35;;;4.03;;
34459;SDS011;20704;51.260;22.558;2023-07-13T02:48:38;13.15;;;3.58;;
34459;SDS011;20704;51.260;22.558;2023-07-13T02:50:41;8.63;;;4.75;;
34459;SDS011;20704;51.260;22.558;2023-07-13T02:52:43;11.05;;;4.18;;
34459;SDS011;20704;51.260;22.558;2023-07-13T02:54:46;7.95;;;4.05;;
34459;SDS011;20704;51.260;22.558;2023-07-13T02:56:48;10.48;;;4.30;;
34459;SDS011;20704;51.260;22.558;2023-07-13T02:58:50;7.13;;;4.25;;
34459;SDS011;20704;51.260;22.558;2023-07-13T03:00:53;6.07;;;3.90;;
34459;SDS011;20704;51.260;22.558;2023-07-13T03:02:57;6.05;;;3.75;;
34459;SDS011;20704;51.260;22.558;2023-07-13T03:05:00;6.97;;;4.80;;
34459;SDS011;20704;51.260;22.558;2023-07-13T03:07:03;8.85;;;5.05;;
34459;SDS011;20704;51.260;22.558;2023-07-13T03:09:06;7.35;;;4.75;;
34459;SDS011;20704;51.260;22.558;2023-07-13T03:11:12;7.43;;;4.47;;
34459;SDS011;20704;51.260;22.558;2023-07-13T03:13:16;7.63;;;4.88;;
34459;SDS011;20704;51.260;22.558;2023-07-13T03:15:18;8.23;;;4.75;;
34459;SDS011;20704;51.260;22.558;2023-07-13T03:17:21;9.18;;;4.90;;
34459;SDS011;20704;51.260;22.558;2023-07-13T03:19:23;7.93;;;4.97;;
34459;SDS011;20704;51.260;22.558;2023-07-13T03:21:26;7.65;;;4.88;;
34459;SDS011;20704;51.260;22.558;2023-07-13T03:23:28;9.02;;;5.38;;
34459;SDS011;20704;51.260;22.558;2023-07-13T03:25:31;10.18;;;4.65;;
34459;SDS011;20704;51.260;22.558;2023-07-13T03:27:33;4.88;;;4.10;;
34459;SDS011;20704;51.260;22.558;2023-07-13T03:29:35;11.23;;;4.53;;
34459;SDS011;20704;51.260;22.558;2023-07-13T03:31:38;8.65;;;5.32;;
34459;SDS011;20704;51.260;22.558;2023-07-13T03:33:41;5.63;;;4.43;;
34459;SDS011;20704;51.260;22.558;2023-07-13T03:35:44;11.80;;;5.35;;
34459;SDS011;20704;51.260;22.558;2023-07-13T03:37:47;8.55;;;4.38;;
34459;SDS011;20704;51.260;22.558;2023-07-13T03:39:49;7.57;;;4.75;;
34459;SDS011;20704;51.260;22.558;2023-07-13T03:41:52;9.20;;;5.20;;
34459;SDS011;20704;51.260;22.558;2023-07-13T03:43:54;9.38;;;4.78;;
34459;SDS011;20704;51.260;22.558;2023-07-13T03:45:57;7.22;;;4.95;;
34459;SDS011;20704;51.260;22.558;2023-07-13T03:47:59;9.63;;;4.85;;
34459;SDS011;20704;51.260;22.558;2023-07-13T03:50:01;6.90;;;5.15;;
34459;SDS011;20704;51.260;22.558;2023-07-13T03:52:05;6.28;;;4.93;;
34459;SDS011;20704;51.260;22.558;2023-07-13T03:54:08;9.80;;;5.90;;
34459;SDS011;20704;51.260;22.558;2023-07-13T03:56:10;6.97;;;5.25;;
34459;SDS011;20704;51.260;22.558;2023-07-13T04:00:36;8.13;;;4.55;;
34459;SDS011;20704;51.260;22.558;2023-07-13T04:02:39;11.95;;;5.72;;
34459;SDS011;20704;51.260;22.558;2023-07-13T04:04:41;7.25;;;5.50;;
34459;SDS011;20704;51.260;22.558;2023-07-13T04:06:43;8.02;;;5.35;;
34459;SDS011;20704;51.260;22.558;2023-07-13T04:08:46;7.70;;;4.90;;
34459;SDS011;20704;51.260;22.558;2023-07-13T04:10:52;11.38;;;5.65;;
34459;SDS011;20704;51.260;22.558;2023-07-13T04:12:54;7.53;;;5.22;;
34459;SDS011;20704;51.260;22.558;2023-07-13T04:14:57;14.20;;;6.20;;
34459;SDS011;20704;51.260;22.558;2023-07-13T04:16:59;7.80;;;5.22;;
34459;SDS011;20704;51.260;22.558;2023-07-13T04:19:02;12.48;;;7.00;;
34459;SDS011;20704;51.260;22.558;2023-07-13T04:21:04;10.80;;;5.38;;
34459;SDS011;20704;51.260;22.558;2023-07-13T04:23:06;6.78;;;4.80;;
34459;SDS011;20704;51.260;22.558;2023-07-13T04:25:09;8.38;;;5.72;;
34459;SDS011;20704;51.260;22.558;2023-07-13T04:27:11;9.07;;;5.63;;
34459;SDS011;20704;51.260;22.558;2023-07-13T04:29:13;10.57;;;6.13;;
34459;SDS011;20704;51.260;22.558;2023-07-13T04:31:17;10.68;;;6.00;;
34459;SDS011;20704;51.260;22.558;2023-07-13T04:33:19;10.95;;;6.75;;
34459;SDS011;20704;51.260;22.558;2023-07-13T04:35:25;12.23;;;6.70;;
34459;SDS011;20704;51.260;22.558;2023-07-13T04:37:28;11.70;;;6.10;;
34459;SDS011;20704;51.260;22.558;2023-07-13T04:39:31;9.38;;;6.47;;
34459;SDS011;20704;51.260;22.558;2023-07-13T04:41:33;10.80;;;6.65;;
34459;SDS011;20704;51.260;22.558;2023-07-13T04:43:36;22.10;;;6.22;;
34459;SDS011;20704;51.260;22.558;2023-07-13T04:45:38;7.60;;;5.97;;
34459;SDS011;20704;51.260;22.558;2023-07-13T04:47:41;11.27;;;5.97;;
34459;SDS011;20704;51.260;22.558;2023-07-13T04:49:44;15.50;;;7.10;;
34459;SDS011;20704;51.260;22.558;2023-07-13T04:51:47;10.45;;;6.50;;
34459;SDS011;20704;51.260;22.558;2023-07-13T04:53:49;15.35;;;7.28;;
34459;SDS011;20704;51.260;22.558;2023-07-13T04:55:57;8.68;;;5.63;;
34459;SDS011;20704;51.260;22.558;2023-07-13T04:57:59;13.32;;;7.18;;
34459;SDS011;20704;51.260;22.558;2023-07-13T05:00:03;9.60;;;6.72;;
34459;SDS011;20704;51.260;22.558;2023-07-13T05:02:08;14.73;;;6.28;;
34459;SDS011;20704;51.260;22.558;2023-07-13T05:04:10;8.75;;;6.50;;
34459;SDS011;20704;51.260;22.558;2023-07-13T05:06:13;12.38;;;6.75;;
34459;SDS011;20704;51.260;22.558;2023-07-13T05:08:15;13.25;;;7.13;;
34459;SDS011;20704;51.260;22.558;2023-07-13T05:10:18;7.45;;;5.78;;
34459;SDS011;20704;51.260;22.558;2023-07-13T05:12:21;10.35;;;7.70;;
34459;SDS011;20704;51.260;22.558;2023-07-13T05:14:23;9.63;;;7.70;;
34459;SDS011;20704;51.260;22.558;2023-07-13T05:16:25;9.02;;;6.63;;
34459;SDS011;20704;51.260;22.558;2023-07-13T05:18:29;13.68;;;7.25;;
34459;SDS011;20704;51.260;22.558;2023-07-13T05:20:32;9.60;;;6.10;;
34459;SDS011;20704;51.260;22.558;2023-07-13T05:22:35;12.40;;;6.95;;
34459;SDS011;20704;51.260;22.558;2023-07-13T05:24:37;9.85;;;7.68;;
34459;SDS011;20704;51.260;22.558;2023-07-13T05:26:40;13.27;;;7.57;;
34459;SDS011;20704;51.260;22.558;2023-07-13T05:28:42;17.02;;;7.65;;
34459;SDS011;20704;51.260;22.558;2023-07-13T05:30:45;13.10;;;7.30;;
34459;SDS011;20704;51.260;22.558;2023-07-13T05:32:48;13.18;;;7.22;;
34459;SDS011;20704;51.260;22.558;2023-07-13T05:34:50;14.45;;;7.90;;
34459;SDS011;20704;51.260;22.558;2023-07-13T05:36:53;17.42;;;6.95;;
34459;SDS011;20704;51.260;22.558;2023-07-13T05:38:55;10.80;;;7.10;;
34459;SDS011;20704;51.260;22.558;2023-07-13T05:40:57;13.45;;;7.50;;
34459;SDS011;20704;51.260;22.558;2023-07-13T05:43:03;16.38;;;7.78;;
34459;SDS011;20704;51.260;22.558;2023-07-13T05:45:06;13.05;;;7.05;;
34459;SDS011;20704;51.260;22.558;2023-07-13T05:47:08;10.18;;;7.30;;
34459;SDS011;20704;51.260;22.558;2023-07-13T05:49:11;9.35;;;6.90;;
34459;SDS011;20704;51.260;22.558;2023-07-13T05:51:13;12.70;;;6.88;;
34459;SDS011;20704;51.260;22.558;2023-07-13T05:53:16;9.55;;;7.10;;
34459;SDS011;20704;51.260;22.558;2023-07-13T05:55:18;8.45;;;7.13;;
34459;SDS011;20704;51.260;22.558;2023-07-13T05:57:21;9.90;;;6.05;;
34459;SDS011;20704;51.260;22.558;2023-07-13T05:59:23;12.30;;;6.25;;
34459;SDS011;20704;51.260;22.558;2023-07-13T06:01:26;8.80;;;6.47;;
34459;SDS011;20704;51.260;22.558;2023-07-13T06:03:29;16.00;;;8.40;;
34459;SDS011;20704;51.260;22.558;2023-07-13T06:05:32;10.20;;;7.05;;
34459;SDS011;20704;51.260;22.558;2023-07-13T06:07:36;14.38;;;7.00;;
34459;SDS011;20704;51.260;22.558;2023-07-13T06:09:38;14.80;;;7.15;;
34459;SDS011;20704;51.260;22.558;2023-07-13T06:11:40;12.30;;;7.15;;
34459;SDS011;20704;51.260;22.558;2023-07-13T06:13:43;8.23;;;6.50;;
34459;SDS011;20704;51.260;22.558;2023-07-13T06:15:49;8.80;;;6.57;;
34459;SDS011;20704;51.260;22.558;2023-07-13T06:17:51;8.10;;;6.78;;
34459;SDS011;20704;51.260;22.558;2023-07-13T06:19:53;10.60;;;7.05;;
34459;SDS011;20704;51.260;22.558;2023-07-13T06:21:56;11.50;;;5.82;;
34459;SDS011;20704;51.260;22.558;2023-07-13T06:24:00;11.68;;;6.82;;
34459;SDS011;20704;51.260;22.558;2023-07-13T06:26:03;9.32;;;6.97;;
34459;SDS011;20704;51.260;22.558;2023-07-13T06:28:05;10.18;;;7.15;;
34459;SDS011;20704;51.260;22.558;2023-07-13T06:30:08;11.60;;;7.97;;
34459;SDS011;20704;51.260;22.558;2023-07-13T06:32:11;11.98;;;7.35;;
34459;SDS011;20704;51.260;22.558;2023-07-13T06:34:13;8.98;;;5.75;;
34459;SDS011;20704;51.260;22.558;2023-07-13T06:36:16;9.27;;;6.57;;
34459;SDS011;20704;51.260;22.558;2023-07-13T06:38:18;10.43;;;7.18;;
34459;SDS011;20704;51.260;22.558;2023-07-13T06:40:20;12.40;;;8.50;;
34459;SDS011;20704;51.260;22.558;2023-07-13T06:42:23;10.00;;;7.10;;
34459;SDS011;20704;51.260;22.558;2023-07-13T06:44:25;11.23;;;7.00;;
34459;SDS011;20704;51.260;22.558;2023-07-13T06:46:28;12.93;;;7.43;;
34459;SDS011;20704;51.260;22.558;2023-07-13T06:48:31;9.95;;;6.68;;
34459;SDS011;20704;51.260;22.558;2023-07-13T06:50:33;12.07;;;6.68;;
34459;SDS011;20704;51.260;22.558;2023-07-13T06:52:36;9.13;;;7.10;;
34459;SDS011;20704;51.260;22.558;2023-07-13T06:54:38;10.23;;;7.57;;
34459;SDS011;20704;51.260;22.558;2023-07-13T06:56:41;9.93;;;6.68;;
34459;SDS011;20704;51.260;22.558;2023-07-13T06:58:43;10.07;;;6.88;;
34459;SDS011;20704;51.260;22.558;2023-07-13T07:00:45;12.82;;;8.15;;
34459;SDS011;20704;51.260;22.558;2023-07-13T07:02:51;9.40;;;6.63;;
34459;SDS011;20704;51.260;22.558;2023-07-13T07:04:54;11.07;;;7.30;;
34459;SDS011;20704;51.260;22.558;2023-07-13T07:06:56;13.57;;;9.02;;
34459;SDS011;20704;51.260;22.558;2023-07-13T07:09:00;10.35;;;8.10;;
34459;SDS011;20704;51.260;22.558;2023-07-13T07:11:02;14.52;;;8.15;;
34459;SDS011;20704;51.260;22.558;2023-07-13T07:13:04;13.88;;;9.00;;
34459;SDS011;20704;51.260;22.558;2023-07-13T07:15:07;14.07;;;8.13;;
34459;SDS011;20704;51.260;22.558;2023-07-13T07:17:09;8.55;;;7.30;;
34459;SDS011;20704;51.260;22.558;2023-07-13T07:19:12;15.10;;;9.18;;
34459;SDS011;20704;51.260;22.558;2023-07-13T07:21:14;16.67;;;7.10;;
34459;SDS011;20704;51.260;22.558;2023-07-13T07:23:17;10.73;;;7.72;;
34459;SDS011;20704;51.260;22.558;2023-07-13T07:25:20;13.18;;;7.50;;
34459;SDS011;20704;51.260;22.558;2023-07-13T07:27:23;15.00;;;9.60;;
34459;SDS011;20704;51.260;22.558;2023-07-13T07:29:28;9.95;;;6.40;;
34459;SDS011;20704;51.260;22.558;2023-07-13T07:31:34;12.63;;;7.22;;
34459;SDS011;20704;51.260;22.558;2023-07-13T07:33:39;10.73;;;7.75;;
34459;SDS011;20704;51.260;22.558;2023-07-13T07:35:42;11.02;;;6.63;;
34459;SDS011;20704;51.260;22.558;2023-07-13T07:38:04;9.20;;;7.10;;
34459;SDS011;20704;51.260;22.558;2023-07-13T07:40:07;13.32;;;7.93;;
34459;SDS011;20704;51.260;22.558;2023-07-13T07:42:12;10.40;;;6.88;;
34459;SDS011;20704;51.260;22.558;2023-07-13T07:44:15;13.48;;;6.90;;
34459;SDS011;20704;51.260;22.558;2023-07-13T07:46:17;10.55;;;6.85;;
34459;SDS011;20704;51.260;22.558;2023-07-13T07:48:19;10.45;;;7.57;;
34459;SDS011;20704;51.260;22.558;2023-07-13T07:50:22;9.82;;;7.78;;
34459;SDS011;20704;51.260;22.558;2023-07-13T07:52:24;12.65;;;8.48;;
34459;SDS011;20704;51.260;22.558;2023-07-13T07:54:27;16.92;;;8.65;;
34459;SDS011;20704;51.260;22.558;2023-07-13T07:56:49;15.70;;;8.55;;
34459;SDS011;20704;51.260;22.558;2023-07-13T07:58:55;13.82;;;9.15;;
34459;SDS011;20704;51.260;22.558;2023-07-13T08:01:06;12.88;;;8.63;;
34459;SDS011;20704;51.260;22.558;2023-07-13T08:03:11;14.55;;;8.70;;
34459;SDS011;20704;51.260;22.558;2023-07-13T08:05:35;12.43;;;7.93;;
34459;SDS011;20704;51.260;22.558;2023-07-13T08:07:56;13.15;;;8.35;;
34459;SDS011;20704;51.260;22.558;2023-07-13T08:09:59;11.63;;;7.93;;
34459;SDS011;20704;51.260;22.558;2023-07-13T08:12:01;11.77;;;8.25;;
34459;SDS011;20704;51.260;22.558;2023-07-13T08:14:07;18.58;;;8.02;;
34459;SDS011;20704;51.260;22.558;2023-07-13T08:16:11;10.02;;;8.55;;
34459;SDS011;20704;51.260;22.558;2023-07-13T08:18:13;16.27;;;8.23;;
34459;SDS011;20704;51.260;22.558;2023-07-13T08:20:16;11.90;;;7.65;;
34459;SDS011;20704;51.260;22.558;2023-07-13T08:22:19;10.80;;;8.07;;
34459;SDS011;20704;51.260;22.558;2023-07-13T08:24:23;12.27;;;7.82;;
34459;SDS011;20704;51.260;22.558;2023-07-13T08:26:26;11.15;;;7.88;;
34459;SDS011;20704;51.260;22.558;2023-07-13T08:28:28;11.30;;;7.93;;
34459;SDS011;20704;51.260;22.558;2023-07-13T08:30:31;16.27;;;7.88;;
34459;SDS011;20704;51.260;22.558;2023-07-13T08:32:33;10.75;;;7.78;;
34459;SDS011;20704;51.260;22.558;2023-07-13T08:34:35;17.10;;;9.20;;
34459;SDS011;20704;51.260;22.558;2023-07-13T08:36:38;16.98;;;8.50;;
34459;SDS011;20704;51.260;22.558;2023-07-13T08:38:40;11.15;;;7.28;;
34459;SDS011;20704;51.260;22.558;2023-07-13T08:40:43;14.95;;;8.52;;
34459;SDS011;20704;51.260;22.558;2023-07-13T08:42:46;14.25;;;9.25;;
34459;SDS011;20704;51.260;22.558;2023-07-13T08:47:16;12.98;;;8.25;;
34459;SDS011;20704;51.260;22.558;2023-07-13T08:49:21;10.90;;;8.73;;
34459;SDS011;20704;51.260;22.558;2023-07-13T08:51:42;9.85;;;6.15;;
34459;SDS011;20704;51.260;22.558;2023-07-13T08:54:10;12.95;;;9.07;;
34459;SDS011;20704;51.260;22.558;2023-07-13T08:56:29;10.63;;;8.65;;
34459;SDS011;20704;51.260;22.558;2023-07-13T08:58:32;15.90;;;8.88;;
34459;SDS011;20704;51.260;22.558;2023-07-13T09:05:19;12.38;;;8.13;;
34459;SDS011;20704;51.260;22.558;2023-07-13T09:16:43;11.50;;;8.15;;
34459;SDS011;20704;51.260;22.558;2023-07-13T09:18:49;12.02;;;7.88;;
34459;SDS011;20704;51.260;22.558;2023-07-13T09:20:55;16.63;;;9.73;;
34459;SDS011;20704;51.260;22.558;2023-07-13T09:23:04;14.43;;;9.38;;
34459;SDS011;20704;51.260;22.558;2023-07-13T09:25:35;12.98;;;10.05;;
34459;SDS011;20704;51.260;22.558;2023-07-13T09:27:38;11.73;;;9.43;;
34459;SDS011;20704;51.260;22.558;2023-07-13T09:29:45;16.55;;;9.82;;
34459;SDS011;20704;51.260;22.558;2023-07-13T09:31:53;18.73;;;10.07;;
34459;SDS011;20704;51.260;22.558;2023-07-13T09:34:02;15.15;;;8.98;;
34459;SDS011;20704;51.260;22.558;2023-07-13T09:36:21;17.33;;;10.10;;
34459;SDS011;20704;51.260;22.558;2023-07-13T09:38:28;24.80;;;9.90;;
34459;SDS011;20704;51.260;22.558;2023-07-13T09:40:38;14.63;;;10.13;;
34459;SDS011;20704;51.260;22.558;2023-07-13T09:42:57;15.48;;;11.95;;
34459;SDS011;20704;51.260;22.558;2023-07-13T09:45:01;14.52;;;9.60;;
34459;SDS011;20704;51.260;22.558;2023-07-13T09:47:26;14.52;;;10.35;;
34459;SDS011;20704;51.260;22.558;2023-07-13T09:49:35;15.23;;;10.18;;
34459;SDS011;20704;51.260;22.558;2023-07-13T09:51:40;15.77;;;9.25;;
34459;SDS011;20704;51.260;22.558;2023-07-13T09:53:43;10.88;;;9.48;;
34459;SDS011;20704;51.260;22.558;2023-07-13T09:55:46;16.15;;;10.63;;
34459;SDS011;20704;51.260;22.558;2023-07-13T09:57:54;14.45;;;10.40;;
34459;SDS011;20704;51.260;22.558;2023-07-13T09:59:56;12.10;;;10.30;;
34459;SDS011;20704;51.260;22.558;2023-07-13T10:02:00;14.60;;;9.80;;
34459;SDS011;20704;51.260;22.558;2023-07-13T10:04:13;14.88;;;10.70;;
34459;SDS011;20704;51.260;22.558;2023-07-13T10:06:20;15.05;;;10.50;;
34459;SDS011;20704;51.260;22.558;2023-07-13T10:08:25;15.52;;;10.13;;
34459;SDS011;20704;51.260;22.558;2023-07-13T10:10:29;13.63;;;9.80;;
34459;SDS011;20704;51.260;22.558;2023-07-13T10:12:35;16.52;;;9.68;;
34459;SDS011;20704;51.260;22.558;2023-07-13T10:14:38;14.02;;;9.60;;
34459;SDS011;20704;51.260;22.558;2023-07-13T10:16:44;13.55;;;9.90;;
34459;SDS011;20704;51.260;22.558;2023-07-13T10:18:49;12.98;;;9.52;;
34459;SDS011;20704;51.260;22.558;2023-07-13T10:21:04;13.18;;;9.43;;
34459;SDS011;20704;51.260;22.558;2023-07-13T10:23:33;12.02;;;9.05;;
34459;SDS011;20704;51.260;22.558;2023-07-13T10:25:38;16.83;;;9.55;;
34459;SDS011;20704;51.260;22.558;2023-07-13T10:27:44;14.73;;;10.65;;
34459;SDS011;20704;51.260;22.558;2023-07-13T10:29:53;16.17;;;10.07;;
34459;SDS011;20704;51.260;22.558;2023-07-13T10:32:06;11.85;;;9.80;;
34459;SDS011;20704;51.260;22.558;2023-07-13T10:34:12;15.95;;;10.18;;
34459;SDS011;20704;51.260;22.558;2023-07-13T10:38:39;19.80;;;11.38;;
34459;SDS011;20704;51.260;22.558;2023-07-13T10:40:55;15.93;;;10.68;;
34459;SDS011;20704;51.260;22.558;2023-07-13T10:43:02;14.00;;;11.25;;
34459;SDS011;20704;51.260;22.558;2023-07-13T10:45:12;11.88;;;9.05;;
34459;SDS011;20704;51.260;22.558;2023-07-13T10:47:19;11.45;;;9.73;;
34459;SDS011;20704;51.260;22.558;2023-07-13T10:49:22;15.65;;;11.15;;
34459;SDS011;20704;51.260;22.558;2023-07-13T10:51:25;11.70;;;9.30;;
34459;SDS011;20704;51.260;22.558;2023-07-13T10:53:30;19.85;;;11.15;;
34459;SDS011;20704;51.260;22.558;2023-07-13T10:57:42;18.25;;;10.48;;
34459;SDS011;20704;51.260;22.558;2023-07-13T10:59:49;14.25;;;10.07;;
34459;SDS011;20704;51.260;22.558;2023-07-13T11:02:26;13.77;;;9.52;;
34459;SDS011;20704;51.260;22.558;2023-07-13T11:04:39;11.63;;;10.07;;
34459;SDS011;20704;51.260;22.558;2023-07-13T11:06:47;12.52;;;8.60;;
34459;SDS011;20704;51.260;22.558;2023-07-13T11:08:53;12.82;;;10.70;;
34459;SDS011;20704;51.260;22.558;2023-07-13T11:10:57;15.18;;;10.30;;
34459;SDS011;20704;51.260;22.558;2023-07-13T11:12:59;12.27;;;8.65;;
34459;SDS011;20704;51.260;22.558;2023-07-13T11:15:04;13.18;;;9.25;;
34459;SDS011;20704;51.260;22.558;2023-07-13T11:19:38;18.60;;;10.52;;
34459;SDS011;20704;51.260;22.558;2023-07-13T11:22:01;15.48;;;10.10;;
34459;SDS011;20704;51.260;22.558;2023-07-13T11:24:16;14.05;;;9.85;;
34459;SDS011;20704;51.260;22.558;2023-07-13T11:26:38;11.02;;;9.60;;
34459;SDS011;20704;51.260;22.558;2023-07-13T11:28:45;17.38;;;11.07;;
34459;SDS011;20704;51.260;22.558;2023-07-13T11:35:12;14.25;;;10.38;;
34459;SDS011;20704;51.260;22.558;2023-07-13T11:37:19;13.35;;;8.95;;
34459;SDS011;20704;51.260;22.558;2023-07-13T11:39:30;19.67;;;10.70;;
34459;SDS011;20704;51.260;22.558;2023-07-13T11:41:37;16.85;;;9.35;;
34459;SDS011;20704;51.260;22.558;2023-07-13T11:43:50;16.13;;;9.10;;
34459;SDS011;20704;51.260;22.558;2023-07-13T11:45:55;15.95;;;8.93;;
34459;SDS011;20704;51.260;22.558;2023-07-13T11:47:58;17.25;;;10.90;;
34459;SDS011;20704;51.260;22.558;2023-07-13T11:50:03;12.57;;;9.35;;
34459;SDS011;20704;51.260;22.558;2023-07-13T11:52:10;12.82;;;9.82;;
34459;SDS011;20704;51.260;22.558;2023-07-13T11:56:35;17.90;;;9.57;;
34459;SDS011;20704;51.260;22.558;2023-07-13T11:58:39;24.30;;;9.52;;
34459;SDS011;20704;51.260;22.558;2023-07-13T12:00:43;12.38;;;8.60;;
34459;SDS011;20704;51.260;22.558;2023-07-13T12:02:46;15.57;;;9.10;;
34459;SDS011;20704;51.260;22.558;2023-07-13T12:04:52;14.07;;;8.73;;
34459;SDS011;20704;51.260;22.558;2023-07-13T12:06:58;10.90;;;8.68;;
34459;SDS011;20704;51.260;22.558;2023-07-13T12:09:13;15.77;;;9.77;;
34459;SDS011;20704;51.260;22.558;2023-07-13T12:11:20;12.48;;;6.68;;
34459;SDS011;20704;51.260;22.558;2023-07-13T12:13:23;17.25;;;8.13;;
34459;SDS011;20704;51.260;22.558;2023-07-13T12:15:40;12.10;;;8.38;;
34459;SDS011;20704;51.260;22.558;2023-07-13T12:17:45;8.77;;;7.00;;
34459;SDS011;20704;51.260;22.558;2023-07-13T12:19:48;10.77;;;7.60;;
34459;SDS011;20704;51.260;22.558;2023-07-13T12:21:53;22.13;;;8.98;;
34459;SDS011;20704;51.260;22.558;2023-07-13T12:23:59;18.52;;;9.13;;
34459;SDS011;20704;51.260;22.558;2023-07-13T12:26:04;16.20;;;8.55;;
34459;SDS011;20704;51.260;22.558;2023-07-13T12:28:21;20.77;;;9.15;;
34459;SDS011;20704;51.260;22.558;2023-07-13T12:30:31;10.68;;;7.80;;
34459;SDS011;20704;51.260;22.558;2023-07-13T12:32:37;16.20;;;9.20;;
34459;SDS011;20704;51.260;22.558;2023-07-13T12:34:50;13.93;;;8.90;;
34459;SDS011;20704;51.260;22.558;2023-07-13T12:36:56;12.88;;;9.43;;
34459;SDS011;20704;51.260;22.558;2023-07-13T12:41:23;15.45;;;8.68;;
34459;SDS011;20704;51.260;22.558;2023-07-13T12:43:26;11.02;;;9.00;;
34459;SDS011;20704;51.260;22.558;2023-07-13T12:45:39;9.63;;;7.90;;
34459;SDS011;20704;51.260;22.558;2023-07-13T12:47:58;10.30;;;7.80;;
34459;SDS011;20704;51.260;22.558;2023-07-13T12:50:16;10.98;;;7.65;;
34459;SDS011;20704;51.260;22.558;2023-07-13T12:52:39;11.48;;;8.18;;